Time;durP1;ratioP1;P1;durP2;ratioP2;P2;SDS_P1;SDS_P2;PMS_P1;PMS_P2;Temp;Humidity;BMP_temperature;BMP_pressure;BME280_temperature;BME280_humidity;BME280_pressure;Samples;Min_cycle;Max_cycle;Signal;HPM_P1;HPM_P2
2023/09/01 00:06:56;;;;;;;7.30;3.05;;;;;;;;;;20999444;28;20040;-62
2023/09/01 00:16:58;;;;;;;5.97;2.80;;;;;;;;;;20999879;28;20387;-61
2023/09/01 00:26:59;;;;;;;8.02;2.50;;;;;;;;;;20998817;28;20095;-62
2023/09/01 00:37:00;;;;;;;4.10;2.42;;;;;;;;;;20998751;28;20053;-62
2023/09/01 00:47:01;;;;;;;6.68;2.30;;;;;;;;;;20997222;28;20044;-63
2023/09/01 00:57:03;;;;;;;5.28;2.40;;;;;;;;;;20996685;28;20107;-63
2023/09/01 01:07:17;;;;;;;4.80;2.40;;;;;;;;;;20997300;28;20044;-63
2023/09/01 01:17:19;;;;;;;5.63;1.83;;;;;;;;;;20997195;28;20513;-62
2023/09/01 01:27:20;;;;;;;3.33;1.92;;;;;;;;;;20995873;28;20127;-62
2023/09/01 01:37:30;;;;;;;4.30;2.10;;;;;;;;;;21013054;28;20042;-62
2023/09/01 01:47:32;;;;;;;6.50;2.47;;;;;;;;;;21013019;28;20443;-63
2023/09/01 01:57:33;;;;;;;5.82;2.10;;;;;;;;;;21010753;28;20112;-63
2023/09/01 02:07:34;;;;;;;3.95;2.10;;;;;;;;;;21009923;28;20041;-62
2023/09/01 02:17:36;;;;;;;3.65;1.80;;;;;;;;;;21010036;28;20047;-63
2023/09/01 02:27:38;;;;;;;4.28;1.80;;;;;;;;;;21007846;28;20051;-61
2023/09/01 02:37:39;;;;;;;3.95;1.70;;;;;;;;;;21008852;28;20490;-62
2023/09/01 02:47:41;;;;;;;8.48;2.15;;;;;;;;;;21006527;28;20435;-62
2023/09/01 02:57:42;;;;;;;3.85;2.15;;;;;;;;;;21006396;28;20518;-62
2023/09/01 03:07:43;;;;;;;6.85;2.30;;;;;;;;;;21006961;28;20080;-63
2023/09/01 03:17:44;;;;;;;6.60;2.28;;;;;;;;;;21006017;28;20047;-64
2023/09/01 03:27:45;;;;;;;3.50;2.05;;;;;;;;;;21003796;28;20086;-62
2023/09/01 03:37:46;;;;;;;6.35;2.17;;;;;;;;;;21002860;28;20048;-63
2023/09/01 03:47:47;;;;;;;5.35;1.65;;;;;;;;;;21001978;28;20123;-62
2023/09/01 03:57:48;;;;;;;3.72;2.17;;;;;;;;;;21000741;28;20140;-62
2023/09/01 04:07:50;;;;;;;6.63;1.85;;;;;;;;;;21001142;28;20041;-61
2023/09/01 04:17:51;;;;;;;4.88;2.00;;;;;;;;;;20998151;28;20044;-62
2023/09/01 04:27:52;;;;;;;3.58;1.90;;;;;;;;;;21000394;28;20053;-63
2023/09/01 04:37:53;;;;;;;6.03;2.08;;;;;;;;;;20999861;28;20036;-62
2023/09/01 04:47:54;;;;;;;4.05;1.70;;;;;;;;;;20999128;28;20064;-63
2023/09/01 04:57:55;;;;;;;4.47;2.17;;;;;;;;;;20996778;28;20464;-62
2023/09/01 05:07:56;;;;;;;7.63;2.00;;;;;;;;;;20996636;28;20042;-62
2023/09/01 05:17:58;;;;;;;4.22;1.90;;;;;;;;;;20995474;28;20043;-61
2023/09/01 05:27:59;;;;;;;6.45;2.33;;;;;;;;;;20994989;28;20052;-62
2023/09/01 05:38:00;;;;;;;3.38;1.80;;;;;;;;;;20996026;28;20123;-62
2023/09/01 05:48:01;;;;;;;11.02;2.70;;;;;;;;;;20994505;28;20043;-62
2023/09/01 05:58:03;;;;;;;7.78;2.50;;;;;;;;;;20995250;28;20053;-62
2023/09/01 06:08:04;;;;;;;6.43;2.08;;;;;;;;;;20994632;28;20047;-63
2023/09/01 06:18:05;;;;;;;6.25;2.15;;;;;;;;;;21001780;28;20051;-63
2023/09/01 06:28:06;;;;;;;5.30;2.25;;;;;;;;;;21009042;28;20076;-62
2023/09/01 06:38:08;;;;;;;3.88;2.40;;;;;;;;;;21007105;28;20052;-61
2023/09/01 06:48:10;;;;;;;10.05;2.33;;;;;;;;;;21007630;28;20041;-62
2023/09/01 06:58:11;;;;;;;8.48;2.28;;;;;;;;;;21005880;28;20056;-62
2023/09/01 07:08:13;;;;;;;7.18;2.05;;;;;;;;;;21005715;28;20612;-62
2023/09/01 07:18:14;;;;;;;8.40;2.00;;;;;;;;;;21004902;28;20076;-62
2023/09/01 07:28:15;;;;;;;14.70;2.63;;;;;;;;;;21003439;28;20059;-62
2023/09/01 07:38:16;;;;;;;13.60;3.50;;;;;;;;;;21003641;28;20098;-62
2023/09/01 07:48:17;;;;;;;11.43;2.90;;;;;;;;;;21002416;28;20044;-62
2023/09/01 07:58:19;;;;;;;15.23;3.72;;;;;;;;;;21000526;28;20214;-63
2023/09/01 08:08:20;;;;;;;9.05;2.08;;;;;;;;;;21001106;28;20497;-62
2023/09/01 08:18:21;;;;;;;10.05;2.30;;;;;;;;;;20999882;28;20508;-62
2023/09/01 08:28:22;;;;;;;4.07;1.73;;;;;;;;;;20999445;28;20144;-62
2023/09/01 08:38:24;;;;;;;8.32;2.28;;;;;;;;;;20998726;28;20375;-62
2023/09/01 08:48:25;;;;;;;6.40;2.50;;;;;;;;;;20997877;28;20535;-62
2023/09/01 08:58:26;;;;;;;11.68;2.42;;;;;;;;;;20996220;28;20516;-63
2023/09/01 09:08:27;;;;;;;8.93;2.30;;;;;;;;;;20996764;28;20048;-62
2023/09/01 09:18:29;;;;;;;7.00;1.80;;;;;;;;;;20995175;28;20055;-63
2023/09/01 09:28:30;;;;;;;11.73;2.58;;;;;;;;;;20995918;28;20049;-62
2023/09/01 09:38:39;;;;;;;5.50;2.20;;;;;;;;;;20995455;28;20143;-61
2023/09/01 09:48:41;;;;;;;7.63;2.38;;;;;;;;;;20996572;28;20355;-62
2023/09/01 09:58:44;;;;;;;5.68;2.70;;;;;;;;;;21010055;28;20208;-63
2023/09/01 10:08:45;;;;;;;9.85;2.55;;;;;;;;;;21009313;28;20093;-62
2023/09/01 10:18:48;;;;;;;11.13;2.38;;;;;;;;;;21008738;28;20047;-62
2023/09/01 10:28:56;;;;;;;17.73;5.55;;;;;;;;;;21007931;28;20056;-63
2023/09/01 10:39:23;;;;;;;11.65;2.42;;;;;;;;;;21006456;28;20041;-62
2023/09/01 10:49:44;;;;;;;11.57;2.60;;;;;;;;;;21003950;28;20060;-62
2023/09/01 10:59:45;;;;;;;7.82;2.20;;;;;;;;;;21006068;28;20072;-61
2023/09/01 11:09:47;;;;;;;11.77;3.05;;;;;;;;;;21005577;28;20047;-61
2023/09/01 11:19:48;;;;;;;6.18;2.55;;;;;;;;;;21004108;28;20131;-62
2023/09/01 11:29:52;;;;;;;11.45;2.80;;;;;;;;;;21004177;28;20055;-62
2023/09/01 11:39:53;;;;;;;5.22;2.35;;;;;;;;;;21002195;28;20032;-62
2023/09/01 11:49:55;;;;;;;5.38;2.58;;;;;;;;;;21001201;28;20074;-62
2023/09/01 11:59:57;;;;;;;6.18;2.72;;;;;;;;;;21000852;28;20119;-62
2023/09/01 12:09:58;;;;;;;11.90;3.17;;;;;;;;;;20999812;28;20045;-61
2023/09/01 12:20:01;;;;;;;5.55;2.33;;;;;;;;;;20998454;28;20132;-62
2023/09/01 12:30:03;;;;;;;4.25;3.00;;;;;;;;;;20999557;28;20170;-62
2023/09/01 12:40:05;;;;;;;5.85;2.28;;;;;;;;;;20998787;28;20040;-62
2023/09/01 12:50:06;;;;;;;6.93;2.58;;;;;;;;;;20996540;28;20061;-62
2023/09/01 13:00:07;;;;;;;4.60;1.80;;;;;;;;;;20997544;28;20517;-62
2023/09/01 13:10:09;;;;;;;3.97;1.70;;;;;;;;;;20995602;28;20045;-62
2023/09/01 13:20:10;;;;;;;4.63;1.67;;;;;;;;;;20996411;28;20414;-63
2023/09/01 13:30:11;;;;;;;3.50;1.98;;;;;;;;;;20995411;28;20055;-62
2023/09/01 13:40:13;;;;;;;4.22;1.80;;;;;;;;;;20996204;28;20086;-63
2023/09/01 13:50:14;;;;;;;5.40;2.00;;;;;;;;;;20995599;28;20053;-62
2023/09/01 14:00:15;;;;;;;3.38;2.10;;;;;;;;;;20993840;28;20044;-62
2023/09/01 14:10:16;;;;;;;4.50;1.95;;;;;;;;;;20994094;28;20040;-62
2023/09/01 14:20:17;;;;;;;4.20;2.05;;;;;;;;;;20993618;28;20048;-62
2023/09/01 14:30:18;;;;;;;5.32;2.28;;;;;;;;;;20993637;28;20048;-62
2023/09/01 14:40:19;;;;;;;6.03;2.15;;;;;;;;;;21002876;28;20120;-63
2023/09/01 14:50:24;;;;;;;7.68;2.95;;;;;;;;;;21005764;28;20147;-63
2023/09/01 15:00:25;;;;;;;6.33;2.20;;;;;;;;;;21006926;28;20512;-63
2023/09/01 15:10:26;;;;;;;3.30;1.90;;;;;;;;;;21005851;28;20051;-62
2023/09/01 15:20:28;;;;;;;3.65;1.92;;;;;;;;;;21005060;28;20049;-62
2023/09/01 15:30:29;;;;;;;8.23;2.38;;;;;;;;;;21003112;28;20055;-62
2023/09/01 15:40:31;;;;;;;6.43;2.25;;;;;;;;;;21003774;28;20132;-62
2023/09/01 15:50:32;;;;;;;4.65;2.58;;;;;;;;;;21001331;28;20128;-63
2023/09/01 16:00:35;;;;;;;4.45;2.30;;;;;;;;;;21000653;28;20056;-62
2023/09/01 16:10:37;;;;;;;4.95;2.90;;;;;;;;;;21001172;28;20045;-62
2023/09/01 16:20:38;;;;;;;3.13;2.10;;;;;;;;;;20998989;28;20044;-61
2023/09/01 16:30:39;;;;;;;5.75;2.20;;;;;;;;;;20999437;28;20425;-63
2023/09/01 16:40:40;;;;;;;3.28;2.15;;;;;;;;;;20997913;28;20040;-62
2023/09/01 16:50:43;;;;;;;7.65;2.50;;;;;;;;;;20997873;28;20048;-62
2023/09/01 17:00:45;;;;;;;4.50;2.65;;;;;;;;;;20996718;28;20040;-63
2023/09/01 17:10:48;;;;;;;10.68;5.38;;;;;;;;;;20995992;28;20051;-63
2023/09/01 17:20:53;;;;;;;8.38;3.53;;;;;;;;;;20995932;28;20049;-63
2023/09/01 17:30:54;;;;;;;3.97;2.58;;;;;;;;;;20994367;28;20045;-62
2023/09/01 17:41:03;;;;;;;6.18;3.13;;;;;;;;;;20994684;28;20040;-64
2023/09/01 17:51:04;;;;;;;4.03;2.30;;;;;;;;;;20995125;28;20052;-61
2023/09/01 18:01:12;;;;;;;9.13;4.50;;;;;;;;;;20994078;28;20056;-62
2023/09/01 18:11:17;;;;;;;5.22;2.75;;;;;;;;;;20998520;28;20178;-61
2023/09/01 18:21:20;;;;;;;6.20;2.97;;;;;;;;;;21009730;28;20406;-61
2023/09/01 18:31:22;;;;;;;8.30;2.58;;;;;;;;;;21009368;28;20094;-61
2023/09/01 18:41:23;;;;;;;5.10;2.60;;;;;;;;;;21008690;28;20044;-61
2023/09/01 18:51:24;;;;;;;7.25;3.05;;;;;;;;;;21007313;28;20510;-62
2023/09/01 19:01:27;;;;;;;7.20;2.88;;;;;;;;;;21006629;28;20490;-62
2023/09/01 19:11:29;;;;;;;7.18;3.55;;;;;;;;;;21005756;28;20044;-62
2023/09/01 19:21:32;;;;;;;4.13;2.22;;;;;;;;;;21004505;28;20548;-61
2023/09/01 19:31:33;;;;;;;4.30;2.30;;;;;;;;;;21004849;28;20391;-61
2023/09/01 19:41:34;;;;;;;5.90;2.83;;;;;;;;;;21003932;28;20410;-61
2023/09/01 19:51:37;;;;;;;7.68;2.80;;;;;;;;;;21003018;28;20102;-62
2023/09/01 20:01:39;;;;;;;5.53;3.05;;;;;;;;;;21002775;28;20567;-62
2023/09/01 20:11:40;;;;;;;9.82;4.22;;;;;;;;;;21001922;28;20076;-62
2023/09/01 20:21:41;;;;;;;10.98;6.70;;;;;;;;;;20999648;28;20052;-62
2023/09/01 20:31:42;;;;;;;9.13;6.45;;;;;;;;;;20998651;28;20048;-62
2023/09/01 20:41:44;;;;;;;10.88;5.47;;;;;;;;;;20999260;28;20132;-61
2023/09/01 20:51:45;;;;;;;12.10;5.00;;;;;;;;;;20997773;28;20071;-61
2023/09/01 21:01:46;;;;;;;9.27;3.95;;;;;;;;;;20998280;28;20498;-61
2023/09/01 21:11:47;;;;;;;12.63;5.47;;;;;;;;;;20997760;28;20040;-62
2023/09/01 21:21:48;;;;;;;7.88;4.50;;;;;;;;;;20997145;28;20052;-62
2023/09/01 21:31:50;;;;;;;10.13;3.72;;;;;;;;;;20995815;28;20053;-61
2023/09/01 21:41:51;;;;;;;12.73;4.60;;;;;;;;;;20996498;28;20041;-62
2023/09/01 21:51:52;;;;;;;9.65;4.70;;;;;;;;;;21008846;28;20048;-62
2023/09/01 22:01:53;;;;;;;8.30;4.15;;;;;;;;;;21010810;28;20055;-62
2023/09/01 22:11:54;;;;;;;10.40;4.95;;;;;;;;;;21009669;28;20059;-61
2023/09/01 22:21:57;;;;;;;21.02;6.85;;;;;;;;;;21010554;28;20049;-63
2023/09/01 22:31:58;;;;;;;12.98;6.35;;;;;;;;;;21009597;28;20459;-62
2023/09/01 22:41:59;;;;;;;12.00;4.60;;;;;;;;;;21008905;28;20036;-62
2023/09/01 22:52:01;;;;;;;8.25;4.53;;;;;;;;;;21007759;28;20094;-62
2023/09/01 23:02:02;;;;;;;12.25;5.50;;;;;;;;;;21007565;28;20040;-63
2023/09/01 23:12:03;;;;;;;10.63;5.03;;;;;;;;;;21006838;28;20048;-61
2023/09/01 23:22:05;;;;;;;13.07;6.13;;;;;;;;;;21006331;28;20040;-63
2023/09/01 23:32:06;;;;;;;12.25;4.20;;;;;;;;;;21005402;28;20059;-61
2023/09/01 23:42:07;;;;;;;8.90;4.35;;;;;;;;;;21004788;28;20554;-62
2023/09/01 23:52:08;;;;;;;6.45;3.40;;;;;;;;;;21003090;28;20045;-61
